Aloha, OR

12:00 PM PDT on October 25, 2014 (GMT -0700)
Longacre Park | Change Station
CLOSE
Current Station
Personal Weather Station
Location: Beaverton, OR
Elevation: 179 ft
Nearby Weather Stations
Active Advisory: High Wind Warning

Elev 179 ft 45.51 °N, 122.87 °W | Updated 11 seconds ago

Overcast
Overcast
61.2 °F
Feels Like 61.2 °F
N
4.9
Wind Variable Wind from SSE
Gusts 4.9 mph

Today
High -- | Low -- °F
--% Chance of Precip.
Yesterday
High -- | Low -- °F
Precip. -- in
7:41 AM 6:08 PM
Waxing Crescent, 4% visible
Pressure 29.38 in
Visibility 10.0 miles
Clouds Overcast 6000 ft
Dew Point 52 °F
Humidity 71%
Rainfall 0.04 in
Snow Depth 0 in
UV 1 out of 12
Pollen .40 out of 12
Ozone Good
PM2.5 Good
Flu Activity Sporadic
METAR KHIO 251853Z VRB05KT 10SM -RA OVC060 13/12 A2938 RMK AO2 SLP948 P0000 T01330117

More Conditions Fewer Conditions

Pressure 29.38 in
Visibility 10.0 miles
Clouds Overcast 6000 ft
Dew Point 52 °F
Humidity 71%
Rainfall 0.04 in
Snow Depth 0 in
UV 1 out of 12
Pollen .40 out of 12
Ozone Good
PM2.5 Good
Flu Activity Sporadic
METAR KHIO 251853Z VRB05KT 10SM -RA OVC060 13/12 A2938 RMK AO2 SLP948 P0000 T01330117

More Conditions Fewer Conditions

10-Day Weather Forecast

Almanac

Astronomy

Oct. 25, 2014 Rise Set
Actual Time 7:41 AM PDT 6:08 PM PDT
Civil Twilight 7:10 AM PDT 6:39 PM PDT
Nautical Twilight 6:36 AM PDT 7:13 PM PDT
Astronomical Twilight 6:01 AM PDT 7:48 PM PDT
Moon 9:29 AM PDT 7:31 PM PDT
Length of Visible Light 11h 28m
Length of Day
10h 27m
Tomorrow will be 2m 57s shorter.
Waxing Crescent, 4% of the Moon is Illuminated
Today
Waxing Crescent
Oct 30
First Quarter
Nov 6
Full
Nov 14
Last Quarter
Nov 22
New

Today's Extremes

State Highs State Lows

Community

WunderPhotos

Upload Photos

1,764,954 photos uploaded!

Nearby

Air Quality

  Air Quality AQ Index Pollutant
Yesterday Good
PM2.5
Yesterday Good
OZONE
Current Good
PM2.5
Current Good
OZONE
Saturday Good
PM2.5

Snow Depth

Station Depth Elevation
Seine Creek 0 in 2000 ft
Saddle Mountain 5 in 3250 ft
North Fork 0 in 3120 ft
Peavine Ridge 0 in 3500 ft
Red Hill 0 in 4400 ft

Earthquake Activity

City Distance Mag. Time & Date
No recent earthquake activity has been reported nearby.
Minimum magnitude displayed is 2.5.

Coastal Water Temperatures

Place Temperature
No Stations Reporting

Nearby Weather Stations